Terminal Aerodrome Forecast
Issued by NWS

Home | Current Version | Previous Version | Text Only | Print | Product List | Glossary On
Versions: 1 2 3 4 5 6 7 8 9 10 11 12 13 14 15 16 17 18
000
FTUS46 KLOX 242000 AAA
TAFVNY
TAF AMD
KVNY 242034Z 2421/2518 35015G25KT P6SM SKC
     FM242300 01011KT P6SM SKC
     FM250700 VRB03KT P6SM SKC
     FM251100 34007KT P6SM SKC WS015/05030KT=

USA.gov is the U.S. government's official web portal to all federal, state and local government web resources and services.